Latest Weather Observations for PORTABLE QFRG NR

IDQ60801

Issued at 6:32 pm EST Sunday 29 March 2020 (issued every 10 minutes, with the page automatically refreshed every 10 minutes)

About weather observations | Map of weather stations | Latest weather observations for QLD | Other Formats
Station Details ID: 250061 Name: PORTABLE QFRG Lat: -19.20 Lon: 146.52 Height: 321.0 m

Portable automatic weather stations (PAWS) are operated by other organisations, such as Fire and Emergency Services, and are included here by agreement. Portable stations may be deployed to a location for a short period and their location may be subject to change without notice. Wind observations from these stations are provided from heights of either three (3) or ten (10) metres above ground level (AGL).

Data from the previous 72 hours. | See also: Recent months for locations in Queensland
Date/Time
EST
Temp
°C
App
Temp
°C
Dew
Point
°C
Rel
Hum
%
Delta-T
°C
Wind Press
QNH
hPa
Press
MSL
hPa
Rain since
9am
mm
Dir  Spd
km/h
Gust
km/h
Spd
kts
Gust
kts
29/06:00pm 28.2 31.8 20.6 63 5.1 ENE 2 4 1 2 - - 4.6
29/05:30pm 29.2 32.7 20.3 58 5.9 E 2 4 1 2 - - 4.6
29/05:00pm 29.5 32.2 20.3 57 6.1 E 6 6 3 3 - - 4.6
29/04:30pm 30.2 32.9 20.3 55 6.6 ESE 6 9 3 5 - - 4.6
29/04:00pm 28.9 31.5 20.1 59 5.8 ESE 6 9 3 5 - - 4.6
29/03:30pm 29.0 31.9 20.7 61 5.6 E 6 9 3 5 - - 4.6
29/03:00pm 29.2 33.1 21.9 64 5.0 SE 4 6 2 3 - - 4.6
29/02:30pm 28.4 32.0 22.1 68 4.3 E 6 7 3 4 - - 4.6
29/02:00pm 26.5 31.4 23.0 81 2.4 SSE 2 4 1 2 - - 4.6
29/01:30pm 26.6 31.0 22.8 79 2.6 S 4 6 2 3 - - 2.4
29/01:00pm 27.7 32.0 21.9 70 3.9 N 2 4 1 2 - - 0.6
29/12:30pm 27.6 31.0 21.6 70 4.1 SW 6 7 3 4 - - 0.2
29/12:00pm 26.9 30.6 22.2 75 3.2 SSE 6 6 3 3 - - 0.2
29/11:30am 26.7 30.4 21.4 72 3.6 ESE 4 4 2 2 - - 0.2
29/11:00am 27.3 30.5 21.3 69 4.0 ESE 6 9 3 5 - - 0.0
29/10:30am 29.0 31.2 20.4 59 5.7 SSE 9 11 5 6 - - 0.0
29/10:00am 28.6 30.9 20.6 62 5.3 SSE 9 11 5 6 - - 0.0
29/09:30am 28.8 31.5 20.2 59 5.7 SSE 6 9 3 5 - - 0.0
29/09:00am 28.0 31.1 20.2 62 5.2 S 4 7 2 4 - - 2.2
29/08:30am 27.0 29.7 20.2 66 4.5 S 6 7 3 4 - - 2.2
29/08:00am 25.4 28.6 20.4 74 3.3 SSW 4 6 2 3 - - 2.2
29/07:30am 22.8 26.9 20.7 88 1.4 CALM 0 0 0 0 - - 2.2
29/07:00am 21.8 25.5 20.0 89 1.2 CALM 0 0 0 0 - - 2.2
29/06:30am 21.3 24.8 19.5 89 1.2 CALM 0 0 0 0 - - 2.2
29/06:00am 21.6 25.1 19.5 88 1.4 CALM 0 0 0 0 - - 2.2
29/05:30am 22.1 25.7 19.8 87 1.5 CALM 0 2 0 1 - - 2.2
29/05:00am 22.4 26.0 19.8 85 1.7 CALM 0 4 0 2 - - 2.2
29/04:30am 22.3 26.1 20.1 87 1.4 CALM 0 0 0 0 - - 2.2
29/04:00am 22.6 26.4 20.2 86 1.6 CALM 0 2 0 1 - - 2.2
29/03:30am 22.9 26.7 20.2 85 1.8 CALM 0 0 0 0 - - 2.2
29/03:00am 23.6 27.4 20.1 81 2.3 CALM 0 0 0 0 - - 2.2
29/02:30am 23.6 26.8 20.4 82 2.1 SSW 4 4 2 2 - - 2.2
29/02:00am 23.8 28.2 21.4 86 1.6 CALM 0 2 0 1 - - 2.2
29/01:30am 24.1 28.7 21.7 86 1.6 CALM 0 4 0 2 - - 2.2
29/01:00am 24.2 28.8 21.7 86 1.7 CALM 0 0 0 0 - - 2.2
29/12:30am 24.3 29.0 21.9 86 1.6 CALM 0 0 0 0 - - 2.2
29/12:00am 24.3 29.1 22.1 87 1.5 CALM 0 4 0 2 - - 2.2
 
Date/Time
EST
Temp
°C
App
Temp
°C
Dew
Point
°C
Rel
Hum
%
Delta-T
°C
Wind Press
QNH
hPa
Press
MSL
hPa
Rain since
9am
mm
Dir  Spd
km/h
Gust
km/h
Spd
kts
Gust
kts
28/11:30pm 24.4 28.9 22.2 87 1.5 SW 2 4 1 2 - - 2.2
28/11:00pm 24.4 29.3 22.3 88 1.4 CALM 0 4 0 2 - - 2.2
28/10:30pm 24.4 29.3 22.3 88 1.4 CALM 0 2 0 1 - - 2.2
28/10:00pm 24.4 29.3 22.4 89 1.4 CALM 0 4 0 2 - - 2.2
28/09:30pm 24.7 29.2 22.3 86 1.6 NW 2 4 1 2 - - 2.2
28/09:00pm 25.0 29.9 22.3 85 1.8 CALM 0 4 0 2 - - 2.0
28/08:30pm 25.3 29.2 21.8 81 2.4 WNW 4 6 2 3 - - 2.0
28/08:00pm 26.0 29.4 21.0 74 3.3 SE 4 6 2 3 - - 2.0
28/07:30pm 25.9 29.3 21.0 74 3.3 SE 4 6 2 3 - - 2.0
28/07:00pm 25.7 29.3 21.3 76 2.9 E 4 4 2 2 - - 2.0
28/06:30pm 26.1 29.9 21.0 73 3.4 ENE 2 4 1 2 - - 2.0
28/06:00pm 26.4 30.4 21.3 73 3.4 S 2 4 1 2 - - 2.0
28/05:30pm 26.8 30.7 21.1 71 3.8 E 2 4 1 2 - - 2.0
28/05:00pm 27.4 31.7 21.1 68 4.2 CALM 0 4 0 2 - - 2.0
28/04:30pm 27.5 31.3 20.9 67 4.4 SSE 2 4 1 2 - - 2.0
28/04:00pm 27.3 30.4 21.1 69 4.2 SE 6 6 3 3 - - 2.0
28/03:30pm 27.2 30.8 21.3 70 4.0 SSE 4 6 2 3 - - 2.0
28/03:00pm 27.0 30.3 21.4 71 3.8 SSE 6 9 3 5 - - 2.0
28/02:30pm 26.5 29.1 20.5 69 4.0 SE 7 7 4 4 - - 2.0
28/02:00pm 25.4 28.3 21.1 77 2.9 S 7 9 4 5 - - 2.0
28/01:30pm 25.7 29.2 22.2 81 2.4 SE 7 11 4 6 - - 2.0
28/01:00pm 25.8 29.1 21.8 78 2.7 SSE 7 11 4 6 - - 2.0
28/12:30pm 26.5 30.2 22.3 78 2.9 SSE 6 7 3 4 - - 2.0
28/12:00pm 24.7 28.4 22.3 86 1.6 SE 6 11 3 6 - - 2.0
28/11:30am 27.8 31.0 21.3 67 4.4 SSE 6 7 3 4 - - 0.0
28/11:00am 27.4 31.1 21.5 70 4.0 SE 4 4 2 2 - - 0.0
28/10:30am 25.8 29.6 21.7 78 2.8 ENE 4 6 2 3 - - 0.0
28/10:00am 27.1 30.3 20.5 67 4.4 SSE 4 6 2 3 - - 0.0
28/09:30am 26.8 30.0 20.6 69 4.1 S 4 6 2 3 - - 0.0
28/09:00am 26.5 29.4 20.6 70 3.9 SSW 6 7 3 4 - - 0.4
28/08:30am 25.5 28.6 20.2 72 3.5 S 4 6 2 3 - - 0.4
28/08:00am 25.1 28.2 20.2 74 3.2 S 4 6 2 3 - - 0.4
28/07:30am 24.6 27.7 20.2 76 2.9 S 4 6 2 3 - - 0.4
28/07:00am 23.5 26.9 20.1 81 2.2 SSW 2 4 1 2 - - 0.4
28/06:30am 23.0 26.9 20.4 85 1.7 CALM 0 2 0 1 - - 0.4
28/06:00am 22.9 26.8 20.3 85 1.7 CALM 0 2 0 1 - - 0.4
28/05:30am 22.8 26.8 20.6 87 1.4 CALM 0 0 0 0 - - 0.4
28/05:00am 22.9 26.9 20.5 86 1.6 CALM 0 0 0 0 - - 0.4
28/04:30am 22.9 26.8 20.3 85 1.7 CALM 0 2 0 1 - - 0.4
28/04:00am 22.6 26.4 20.2 86 1.6 CALM 0 0 0 0 - - 0.4
28/03:30am 22.5 26.0 20.4 88 1.4 SSW 2 2 1 1 - - 0.4
28/03:00am 22.7 26.9 20.9 89 1.2 CALM 0 0 0 0 - - 0.4
28/02:30am 22.9 27.2 21.1 89 1.2 CALM 0 0 0 0 - - 0.4
28/02:00am 23.0 27.3 21.1 89 1.3 CALM 0 0 0 0 - - 0.4
28/01:30am 23.5 27.8 21.2 87 1.5 CALM 0 2 0 1 - - 0.4
28/01:00am 24.0 27.7 21.4 85 1.7 SE 4 4 2 2 - - 0.4
28/12:30am 23.6 27.8 21.8 90 1.2 S 2 4 1 2 - - 0.4
28/12:00am 23.8 28.4 21.8 88 1.3 CALM 0 0 0 0 - - 0.4
 
Date/Time
EST
Temp
°C
App
Temp
°C
Dew
Point
°C
Rel
Hum
%
Delta-T
°C
Wind Press
QNH
hPa
Press
MSL
hPa
Rain since
9am
mm
Dir  Spd
km/h
Gust
km/h
Spd
kts
Gust
kts
27/11:30pm 23.8 28.4 21.7 88 1.4 CALM 0 2 0 1 - - 0.4
27/11:00pm 24.1 28.3 21.7 86 1.6 SSW 2 4 1 2 - - 0.4
27/10:30pm 24.6 28.8 21.8 84 1.9 S 2 6 1 3 - - 0.0
27/10:00pm 24.8 29.4 21.7 83 2.1 CALM 0 0 0 0 - - 0.0
27/09:30pm 24.9 29.5 21.8 83 2.1 CALM 0 2 0 1 - - 0.0
27/09:00pm 25.1 29.9 22.1 83 2.0 CALM 0 0 0 0 - - 0.0
27/08:30pm 25.4 30.0 21.8 80 2.4 CALM 0 0 0 0 - - 0.0
27/08:00pm 25.4 30.0 21.8 80 2.4 CALM 0 0 0 0 - - 0.0
27/07:30pm 25.7 30.2 21.6 78 2.8 CALM 0 2 0 1 - - 0.0
27/07:00pm 25.9 30.2 21.1 75 3.2 CALM 0 2 0 1 - - 0.0
27/06:30pm 26.5 30.5 20.6 70 3.9 CALM 0 0 0 0 - - 0.0
27/06:00pm 27.4 30.9 20.3 65 4.7 NNE 2 4 1 2 - - 0.0
27/05:30pm 28.5 31.3 19.6 58 5.9 NE 4 7 2 4 - - 0.0
27/05:00pm 29.8 32.6 20.4 57 6.3 ENE 6 7 3 4 - - 0.0
27/04:30pm 29.9 32.5 20.0 55 6.6 ENE 6 7 3 4 - - 0.0
27/04:00pm 30.3 33.1 20.5 55 6.6 ENE 6 7 3 4 - - 0.0
27/03:30pm 30.5 33.0 19.8 52 7.1 ENE 6 9 3 5 - - 0.0
27/03:00pm 30.2 32.7 19.9 54 6.8 ENE 6 9 3 5 - - 0.0
27/02:30pm 30.3 32.9 20.4 55 6.6 ENE 7 9 4 5 - - 0.0
27/02:00pm 30.4 33.2 20.5 55 6.6 E 6 7 3 4 - - 0.0
27/01:30pm 30.2 33.3 20.3 55 6.6 - 4 6 2 3 - - 0.0
27/01:00pm 30.5 33.0 20.3 54 6.8 ENE 7 9 4 5 - - 0.0
27/12:30pm 29.9 32.9 20.8 58 6.1 NE 6 9 3 5 - - 0.0
27/12:00pm 29.7 32.4 19.5 54 6.7 E 4 7 2 4 - - 0.0
27/11:30am 30.9 33.0 19.4 50 7.6 SE 7 9 4 5 - - 0.0
27/11:00am 30.3 32.1 19.5 52 7.1 SSE 9 11 5 6 - - 0.0
27/10:30am 29.9 32.1 19.6 54 6.8 SSE 7 11 4 6 - - 0.0
27/10:00am 28.7 30.6 18.9 55 6.4 ESE 7 9 4 5 - - 0.0
27/09:30am 29.0 30.9 18.9 54 6.6 SE 7 9 4 5 - - 0.0
27/09:00am 27.5 29.6 19.3 61 5.4 SE 7 9 4 5 - - 0.0
27/08:30am 27.4 30.0 19.2 61 5.4 SSE 4 7 2 4 - - 0.0
27/08:00am 25.4 27.8 18.9 67 4.2 SSW 4 4 2 2 - - 0.0
27/07:30am 24.5 27.1 18.3 68 4.0 SSW 2 4 1 2 - - 0.0
27/07:00am 22.7 25.5 18.9 79 2.4 SSW 2 2 1 1 - - 0.0
27/06:30am 22.3 25.4 19.4 83 1.9 WNW 2 4 1 2 - - 0.0
27/06:00am 22.3 25.4 19.5 84 1.8 SSE 2 4 1 2 - - 0.0
27/05:30am 21.6 25.1 19.6 88 1.3 CALM 0 0 0 0 - - 0.0
27/05:00am 21.7 25.3 19.7 88 1.3 CALM 0 0 0 0 - - 0.0
27/04:30am 21.9 25.3 19.4 86 1.6 CALM 0 0 0 0 - - 0.0
27/04:00am 22.5 25.8 19.0 80 2.2 CALM 0 0 0 0 - - 0.0
27/03:30am 23.1 26.0 19.0 78 2.6 S 2 2 1 1 - - 0.0
27/03:00am 23.0 26.9 20.4 85 1.7 CALM 0 0 0 0 - - 0.0
27/02:30am 23.7 27.9 20.9 84 1.9 CALM 0 0 0 0 - - 0.0
27/02:00am 24.0 28.3 21.2 84 1.9 CALM 0 0 0 0 - - 0.0
27/01:30am 23.8 28.2 21.4 86 1.6 CALM 0 0 0 0 - - 0.0
27/01:00am 24.1 28.6 21.5 85 1.7 CALM 0 0 0 0 - - 0.0
27/12:30am 23.9 28.4 21.6 87 1.5 CALM 0 0 0 0 - - 0.0
27/12:00am 23.8 28.2 21.4 86 1.6 CALM 0 0 0 0 - - 0.0
 
Date/Time
EST
Temp
°C
App
Temp
°C
Dew
Point
°C
Rel
Hum
%
Delta-T
°C
Wind Press
QNH
hPa
Press
MSL
hPa
Rain since
9am
mm
Dir  Spd
km/h
Gust
km/h
Spd
kts
Gust
kts
26/11:30pm 23.8 28.1 21.2 85 1.7 CALM 0 0 0 0 - - 0.0
26/11:00pm 23.7 27.8 20.8 84 1.9 CALM 0 2 0 1 - - 0.0
26/10:30pm 24.1 27.8 20.7 81 2.2 SW 2 2 1 1 - - 0.0
26/10:00pm 24.1 27.9 20.9 82 2.1 WSW 2 2 1 1 - - 0.0
26/09:30pm 24.5 28.9 21.3 82 2.1 CALM 0 2 0 1 - - 0.0
26/09:00pm 24.7 28.6 21.1 80 2.4 SSW 2 4 1 2 - - 0.0
26/08:30pm 24.8 29.0 21.0 79 2.5 CALM 0 2 0 1 - - 0.0
26/08:00pm 25.3 29.6 21.1 77 2.8 CALM 0 2 0 1 - - 0.0
26/07:30pm 25.1 29.5 21.3 79 2.5 CALM 0 0 0 0 - - 0.0
26/07:00pm 25.7 30.1 21.3 76 2.9 CALM 0 2 0 1 - - 0.0

Other formats

Comma delimited format used in spreadsheet applications
http://www.bom.gov.au/fwo/IDQ60801/IDQ60801.99115.axf

JavaScript Object Notation format (JSON) in row-major order
http://www.bom.gov.au/fwo/IDQ60801/IDQ60801.99115.json

Data quality

Most of these data are generated automatically and are frequently updated. Quality checks on data are not normally performed. It is possible for incorrect values to appear. Refer to information at About Latest Weather Observations and please check the disclaimer before using these data.